Time;durP1;ratioP1;P1;durP2;ratioP2;P2;SDS_P1;SDS_P2;PMS_P1;PMS_P2;Temp;Humidity;BMP_temperature;BMP_pressure;BME280_temperature;BME280_humidity;BME280_pressure;Samples;Min_cycle;Max_cycle;Signal;HPM_P1;HPM_P2
2023/03/14 00:02:00;;;;;;;8.10;2.60;;;10.10;48.90;;;;;;5059200;28;20214;-66
2023/03/14 00:04:28;;;;;;;18.05;3.40;;;10.10;49.20;;;;;;5048889;28;20538;-66
2023/03/14 00:06:55;;;;;;;12.35;3.00;;;10.10;49.20;;;;;;5062390;27;20203;-66
2023/03/14 00:09:21;;;;;;;16.10;2.95;;;10.20;50.90;;;;;;5053202;27;20219;-66
2023/03/14 00:11:48;;;;;;;8.88;2.80;;;10.20;49.40;;;;;;5076539;28;20254;-66
2023/03/14 00:14:16;;;;;;;12.68;3.25;;;10.20;49.00;;;;;;5064059;28;20196;-66
2023/03/14 00:16:46;;;;;;;11.93;2.75;;;10.20;49.20;;;;;;5054548;28;20734;-66
2023/03/14 00:19:13;;;;;;;18.33;3.33;;;10.20;49.60;;;;;;5064571;27;20203;-66
2023/03/14 00:21:41;;;;;;;11.85;3.03;;;10.20;50.70;;;;;;5044736;28;20202;-66
2023/03/14 00:24:08;;;;;;;18.33;3.08;;;10.20;51.40;;;;;;5043071;27;20206;-66
2023/03/14 00:26:35;;;;;;;18.35;5.20;;;10.20;52.50;;;;;;5042708;28;20207;-66
2023/03/14 00:29:02;;;;;;;11.70;3.95;;;10.20;53.10;;;;;;5063180;27;20206;-66
2023/03/14 00:31:29;;;;;;;18.50;3.97;;;10.20;53.50;;;;;;5058018;27;20479;-66
2023/03/14 00:33:56;;;;;;;13.23;3.33;;;10.20;54.60;;;;;;5058372;27;20409;-66
2023/03/14 00:36:23;;;;;;;17.38;3.20;;;10.20;54.40;;;;;;5055434;27;20192;-66
2023/03/14 00:38:53;;;;;;;12.68;3.63;;;10.20;53.70;;;;;;5061734;28;20841;-66
2023/03/14 00:41:22;;;;;;;16.38;3.38;;;10.20;53.60;;;;;;5035273;27;20216;-66
2023/03/14 00:43:49;;;;;;;15.85;3.38;;;10.30;53.80;;;;;;5048957;28;21424;-66
2023/03/14 00:46:16;;;;;;;16.70;3.03;;;10.20;54.20;;;;;;5063516;27;20199;-66
2023/03/14 00:48:44;;;;;;;16.63;3.03;;;10.20;55.00;;;;;;5057760;28;20628;-66
2023/03/14 00:51:13;;;;;;;9.98;3.15;;;10.20;56.10;;;;;;5041607;27;20204;-67
2023/03/14 00:53:42;;;;;;;14.52;3.15;;;10.20;57.40;;;;;;5045828;28;20227;-66
2023/03/14 00:56:12;;;;;;;14.20;3.53;;;10.20;58.20;;;;;;5034654;28;20236;-66
2023/03/14 00:58:40;;;;;;;13.98;2.92;;;10.20;58.30;;;;;;5054269;28;20492;-66
2023/03/14 01:01:09;;;;;;;13.20;3.50;;;10.20;59.00;;;;;;5047056;28;20204;-66
2023/03/14 01:03:36;;;;;;;16.77;3.38;;;10.20;59.50;;;;;;5050310;28;20226;-66
2023/03/14 01:06:11;;;;;;;8.23;2.58;;;10.20;60.00;;;;;;5045566;28;20215;-66
2023/03/14 01:08:38;;;;;;;17.13;2.95;;;10.20;61.50;;;;;;5050109;28;20219;-67
2023/03/14 01:11:12;;;;;;;13.02;3.88;;;10.20;63.30;;;;;;5037467;28;20204;-66
2023/03/14 01:13:39;;;;;;;11.63;2.75;;;10.20;65.60;;;;;;5059639;28;20199;-66
2023/03/14 01:16:08;;;;;;;11.85;2.60;;;10.30;67.60;;;;;;5050749;28;20200;-66
2023/03/14 01:18:36;;;;;;;14.00;2.85;;;10.30;71.30;;;;;;5051625;28;20226;-66
2023/03/14 01:21:03;;;;;;;10.35;2.95;;;10.30;74.00;;;;;;5044969;28;20200;-66
2023/03/14 01:23:30;;;;;;;7.78;2.50;;;10.30;77.70;;;;;;5049291;28;20201;-66
2023/03/14 01:25:56;;;;;;;7.25;2.67;;;10.30;78.50;;;;;;5013782;28;21010;-66
2023/03/14 01:28:25;;;;;;;6.05;2.45;;;10.40;80.50;;;;;;5061142;28;20247;-66
2023/03/14 01:30:51;;;;;;;6.85;2.50;;;10.40;82.00;;;;;;5050741;28;20205;-66
2023/03/14 01:33:18;;;;;;;9.40;2.83;;;10.30;84.00;;;;;;5049864;28;20459;-66
2023/03/14 01:35:45;;;;;;;10.43;2.67;;;10.40;84.20;;;;;;5058524;28;20843;-66
2023/03/14 01:38:12;;;;;;;3.88;2.17;;;10.40;85.70;;;;;;5040337;28;20196;-66
2023/03/14 01:40:44;;;;;;;5.45;2.35;;;10.40;87.40;;;;;;5058398;28;20195;-66
2023/03/14 01:43:16;;;;;;;8.32;2.53;;;10.40;89.80;;;;;;5029432;28;20211;-67
2023/03/14 01:46:23;;;;;;;8.77;2.53;;;10.40;90.20;;;;;;5041600;28;21397;-66
2023/03/14 01:48:58;;;;;;;7.90;2.65;;;10.40;91.10;;;;;;5033964;28;20199;-66
2023/03/14 01:51:30;;;;;;;5.60;2.45;;;10.40;91.30;;;;;;5057388;28;20223;-66
2023/03/14 01:54:05;;;;;;;9.10;3.20;;;10.40;92.10;;;;;;5061327;27;20202;-66
2023/03/14 01:56:32;;;;;;;4.60;2.60;;;10.40;93.10;;;;;;5057604;27;20241;-66
2023/03/14 01:59:00;;;;;;;8.25;3.10;;;10.50;93.60;;;;;;5049039;28;20200;-66
2023/03/14 02:01:30;;;;;;;5.00;2.72;;;10.50;93.70;;;;;;5056604;28;20391;-66
2023/03/14 02:04:01;;;;;;;3.72;2.50;;;10.50;94.10;;;;;;5068276;28;20680;-66
2023/03/14 02:06:34;;;;;;;4.43;2.72;;;10.60;94.80;;;;;;5068806;28;20191;-66
2023/03/14 02:09:03;;;;;;;5.57;2.45;;;10.50;94.90;;;;;;5051570;28;20211;-66
2023/03/14 02:11:31;;;;;;;5.28;2.20;;;10.60;95.50;;;;;;5083115;28;20217;-66
2023/03/14 02:13:59;;;;;;;7.35;2.63;;;10.50;95.40;;;;;;5047684;28;20195;-66
2023/03/14 02:16:27;;;;;;;6.43;2.88;;;10.50;96.00;;;;;;5046361;28;20192;-66
2023/03/14 02:18:54;;;;;;;7.68;2.67;;;10.60;96.20;;;;;;5065871;28;20229;-66
2023/03/14 02:21:27;;;;;;;6.68;2.72;;;10.60;96.30;;;;;;5073026;28;20693;-66
2023/03/14 02:24:05;;;;;;;9.07;3.08;;;10.60;96.70;;;;;;5044074;28;21023;-67
2023/03/14 02:26:37;;;;;;;4.78;2.40;;;10.60;97.00;;;;;;5066821;28;20192;-66
2023/03/14 02:29:06;;;;;;;5.97;2.83;;;10.60;96.60;;;;;;5021556;28;20208;-67
2023/03/14 02:31:34;;;;;;;5.95;2.90;;;10.60;96.80;;;;;;5047207;28;20749;-66
2023/03/14 02:34:01;;;;;;;9.95;3.13;;;10.60;97.00;;;;;;5074065;28;20322;-66
2023/03/14 02:36:29;;;;;;;8.60;3.00;;;10.70;97.10;;;;;;5069716;28;20206;-66
2023/03/14 02:39:04;;;;;;;5.72;2.88;;;10.70;96.80;;;;;;5049138;28;20277;-67
2023/03/14 02:41:32;;;;;;;7.28;3.30;;;10.70;96.50;;;;;;5068779;28;20407;-66
2023/03/14 02:43:59;;;;;;;6.13;2.63;;;10.70;95.80;;;;;;5033213;28;20344;-66
2023/03/14 02:46:27;;;;;;;8.38;2.67;;;10.80;95.80;;;;;;5054371;28;20220;-66
2023/03/14 02:48:57;;;;;;;11.02;2.45;;;10.80;96.10;;;;;;5044499;28;20681;-66
2023/03/14 02:51:26;;;;;;;6.50;3.08;;;10.80;95.70;;;;;;5070944;28;20223;-66
2023/03/14 02:53:53;;;;;;;5.57;2.22;;;10.80;95.80;;;;;;5039950;28;20805;-66
2023/03/14 02:56:20;;;;;;;8.18;3.33;;;10.80;95.50;;;;;;5061723;28;20368;-66
2023/03/14 02:58:46;;;;;;;6.43;2.88;;;10.80;95.00;;;;;;5041154;28;20216;-67
2023/03/14 03:01:13;;;;;;;7.03;2.60;;;10.80;95.60;;;;;;5063260;28;20200;-66
2023/03/14 03:03:42;;;;;;;9.35;3.25;;;10.80;98.30;;;;;;5040311;28;20227;-67
2023/03/14 03:06:09;;;;;;;5.47;2.90;;;10.80;99.90;;;;;;5061453;28;20397;-67
2023/03/14 03:08:36;;;;;;;7.93;1.90;;;10.70;99.90;;;;;;5056036;28;20574;-67
2023/03/14 03:11:03;;;;;;;3.90;1.52;;;10.50;97.70;;;;;;5057682;27;20812;-67
2023/03/14 03:13:29;;;;;;;4.13;1.33;;;10.40;95.10;;;;;;5072513;27;20260;-67
2023/03/14 03:15:56;;;;;;;6.30;1.83;;;10.20;94.70;;;;;;5031999;27;20216;-68
2023/03/14 03:18:23;;;;;;;7.28;1.35;;;10.10;97.60;;;;;;5064078;27;20222;-68
2023/03/14 03:20:51;;;;;;;3.67;1.13;;;10.00;99.90;;;;;;5032583;27;21054;-68
2023/03/14 03:23:18;;;;;;;4.55;1.13;;;9.80;99.90;;;;;;5073251;27;20200;-68
2023/03/14 03:25:49;;;;;;;3.63;1.10;;;9.80;99.50;;;;;;5025283;27;22226;-68
2023/03/14 03:28:16;;;;;;;2.25;1.30;;;9.70;99.90;;;;;;5081105;28;20195;-68
2023/03/14 03:30:43;;;;;;;1.95;1.10;;;9.70;99.90;;;;;;5036287;27;20231;-68
2023/03/14 03:33:11;;;;;;;5.93;1.50;;;9.70;99.90;;;;;;5055697;28;20226;-68
2023/03/14 03:35:43;;;;;;;5.63;1.33;;;9.60;99.90;;;;;;5059101;27;20196;-68
2023/03/14 03:38:12;;;;;;;3.92;1.30;;;9.60;99.90;;;;;;5079334;27;20702;-68
2023/03/14 03:40:39;;;;;;;4.40;1.40;;;9.60;99.90;;;;;;5054844;27;20272;-68
2023/03/14 03:43:06;;;;;;;4.97;1.58;;;9.60;99.90;;;;;;5059353;27;20199;-68
2023/03/14 03:45:32;;;;;;;2.88;1.23;;;9.60;99.90;;;;;;5064215;27;20200;-68
2023/03/14 03:47:59;;;;;;;5.72;1.30;;;9.60;99.90;;;;;;5035924;27;21024;-68
2023/03/14 03:50:26;;;;;;;1.98;1.10;;;9.60;99.90;;;;;;5080980;27;20231;-68
2023/03/14 03:52:53;;;;;;;2.92;1.30;;;9.60;99.90;;;;;;5048818;27;20422;-68
2023/03/14 03:55:21;;;;;;;5.13;1.48;;;9.60;99.90;;;;;;5034686;28;20200;-69
2023/03/14 03:57:48;;;;;;;5.97;1.50;;;9.60;99.90;;;;;;5040522;28;20433;-68
2023/03/14 04:00:15;;;;;;;2.67;1.33;;;9.50;99.90;;;;;;5053732;28;20196;-69
2023/03/14 04:02:42;;;;;;;2.72;1.02;;;9.60;99.90;;;;;;5009863;28;20988;-68
2023/03/14 04:05:09;;;;;;;2.97;1.42;;;9.60;99.90;;;;;;5027883;28;20407;-68
2023/03/14 04:07:36;;;;;;;2.80;1.30;;;9.50;99.90;;;;;;5037504;28;20575;-68
2023/03/14 04:10:03;;;;;;;4.78;1.23;;;9.60;99.90;;;;;;5058596;28;20201;-68
2023/03/14 04:12:31;;;;;;;5.18;1.20;;;9.60;99.90;;;;;;5038654;28;20224;-68
2023/03/14 04:14:58;;;;;;;1.83;1.52;;;9.50;99.90;;;;;;5030296;28;20367;-68
2023/03/14 04:17:25;;;;;;;1.98;1.20;;;9.50;99.90;;;;;;5026133;28;20215;-68
2023/03/14 04:19:53;;;;;;;6.32;1.63;;;9.50;99.90;;;;;;5023995;28;21271;-68
2023/03/14 04:22:20;;;;;;;4.75;1.58;;;9.50;99.90;;;;;;5047668;28;20246;-68
2023/03/14 04:24:47;;;;;;;5.25;2.03;;;9.40;99.90;;;;;;5041888;28;20212;-68
2023/03/14 04:27:15;;;;;;;9.18;4.70;;;9.40;99.90;;;;;;5028073;28;20211;-68
2023/03/14 04:29:43;;;;;;;6.45;3.40;;;9.40;99.90;;;;;;5028299;28;20778;-68
2023/03/14 04:32:10;;;;;;;7.10;2.50;;;9.40;99.90;;;;;;5053409;28;20270;-68
2023/03/14 04:34:36;;;;;;;4.35;2.10;;;9.40;99.90;;;;;;5004633;28;20223;-68
2023/03/14 04:37:03;;;;;;;3.80;1.80;;;9.40;99.90;;;;;;5040402;28;20698;-69
2023/03/14 04:39:30;;;;;;;3.95;2.30;;;9.40;99.90;;;;;;5056203;28;21313;-68
2023/03/14 04:41:57;;;;;;;5.40;2.10;;;9.50;99.90;;;;;;5028603;28;20220;-68
2023/03/14 04:44:24;;;;;;;5.03;2.63;;;9.50;99.90;;;;;;5044231;28;20199;-69
2023/03/14 04:46:52;;;;;;;7.85;3.05;;;9.50;99.90;;;;;;5046531;28;20201;-68
2023/03/14 04:49:19;;;;;;;5.78;3.50;;;9.50;99.90;;;;;;5016407;28;20231;-68
2023/03/14 04:51:45;;;;;;;6.40;4.07;;;9.50;99.90;;;;;;5036925;28;20705;-68
2023/03/14 04:54:12;;;;;;;8.30;3.47;;;9.60;99.90;;;;;;5046778;28;20219;-68
2023/03/14 04:56:39;;;;;;;10.93;3.45;;;9.60;99.90;;;;;;5036189;28;20196;-68
2023/03/14 04:59:06;;;;;;;4.47;3.15;;;9.60;99.90;;;;;;5058688;28;20214;-68
2023/03/14 05:01:33;;;;;;;5.55;2.47;;;9.60;99.90;;;;;;5029724;28;20197;-68
2023/03/14 05:04:01;;;;;;;2.72;1.85;;;9.60;99.90;;;;;;5024017;28;20505;-69
2023/03/14 05:06:28;;;;;;;2.63;1.70;;;9.70;99.90;;;;;;5024139;28;20201;-69
2023/03/14 05:08:54;;;;;;;3.08;1.48;;;9.90;99.90;;;;;;5036678;28;20200;-69
2023/03/14 05:11:21;;;;;;;8.13;1.90;;;9.70;99.90;;;;;;5051369;28;20211;-69
2023/03/14 05:13:48;;;;;;;7.50;1.58;;;9.60;99.90;;;;;;5035479;28;20715;-68
2023/03/14 05:16:15;;;;;;;5.93;1.60;;;9.70;99.90;;;;;;5044414;28;20215;-68
2023/03/14 05:18:41;;;;;;;4.88;1.70;;;9.60;99.90;;;;;;5026473;28;20204;-68
2023/03/14 05:21:10;;;;;;;3.70;1.55;;;9.60;99.90;;;;;;5018101;28;20590;-68
2023/03/14 05:23:36;;;;;;;4.10;1.60;;;9.60;99.90;;;;;;5039727;28;20356;-69
2023/03/14 05:26:03;;;;;;;3.88;1.30;;;9.60;99.90;;;;;;5034426;28;20334;-69
2023/03/14 05:28:30;;;;;;;4.88;1.50;;;9.60;99.90;;;;;;5053912;28;20188;-69
2023/03/14 05:30:57;;;;;;;3.42;1.80;;;9.60;99.90;;;;;;5031777;28;21129;-68
2023/03/14 05:33:23;;;;;;;6.03;2.25;;;9.60;99.90;;;;;;5050697;28;20247;-68
2023/03/14 05:35:50;;;;;;;3.28;1.40;;;9.60;99.90;;;;;;5002941;28;20251;-68
2023/03/14 05:38:19;;;;;;;4.32;1.38;;;9.60;99.90;;;;;;5036174;28;22980;-68
2023/03/14 05:40:46;;;;;;;7.47;2.17;;;9.60;99.90;;;;;;5037667;28;20354;-68
2023/03/14 05:43:13;;;;;;;6.68;1.67;;;9.60;99.90;;;;;;5056536;28;20228;-69
2023/03/14 05:45:40;;;;;;;3.95;1.77;;;9.60;99.90;;;;;;5027282;28;20221;-68
2023/03/14 05:48:07;;;;;;;7.13;2.13;;;9.60;99.90;;;;;;5048409;28;20224;-68
2023/03/14 05:50:34;;;;;;;7.05;2.20;;;9.60;99.90;;;;;;5021128;28;20227;-69
2023/03/14 05:53:00;;;;;;;5.25;1.92;;;9.70;99.90;;;;;;5034993;28;20811;-69
2023/03/14 05:55:29;;;;;;;10.00;2.50;;;9.60;99.90;;;;;;5068624;28;20228;-68
2023/03/14 05:57:56;;;;;;;5.78;2.05;;;9.60;99.90;;;;;;5057228;28;20721;-68
2023/03/14 06:00:23;;;;;;;3.95;1.70;;;9.60;99.90;;;;;;5047566;28;20222;-68
2023/03/14 06:02:50;;;;;;;4.40;2.28;;;9.70;99.90;;;;;;5036948;28;20404;-68
2023/03/14 06:05:17;;;;;;;6.82;1.90;;;9.70;99.90;;;;;;5043008;27;20204;-69
2023/03/14 06:07:44;;;;;;;7.47;2.08;;;9.70;99.90;;;;;;5047245;28;20208;-69
2023/03/14 06:10:11;;;;;;;8.25;2.55;;;9.70;99.90;;;;;;5062893;27;20398;-68
2023/03/14 06:12:39;;;;;;;2.78;1.65;;;9.70;99.90;;;;;;5050713;28;20408;-68
2023/03/14 06:15:07;;;;;;;5.10;1.70;;;9.70;99.90;;;;;;5053035;28;20231;-68
2023/03/14 06:17:34;;;;;;;6.55;1.83;;;9.70;99.90;;;;;;5052158;28;20223;-68
2023/03/14 06:20:01;;;;;;;4.32;1.83;;;9.80;99.90;;;;;;5067953;28;20235;-69
2023/03/14 06:22:27;;;;;;;2.97;1.40;;;9.80;99.90;;;;;;5034678;28;20313;-69
2023/03/14 06:24:54;;;;;;;4.10;1.80;;;9.70;99.90;;;;;;5072445;28;20223;-69
2023/03/14 06:27:21;;;;;;;5.25;1.83;;;9.70;99.90;;;;;;5058918;28;20192;-69
2023/03/14 06:29:49;;;;;;;2.70;1.70;;;9.70;99.90;;;;;;5070776;28;20320;-68
2023/03/14 06:32:16;;;;;;;8.73;1.92;;;9.70;99.90;;;;;;5038621;28;20201;-68
2023/03/14 06:34:43;;;;;;;5.45;1.90;;;9.60;99.90;;;;;;5079779;28;20519;-68
2023/03/14 06:37:09;;;;;;;5.07;1.67;;;9.60;99.90;;;;;;5049211;28;20220;-68
2023/03/14 06:39:38;;;;;;;3.97;2.00;;;9.60;99.90;;;;;;5062177;28;22637;-68
2023/03/14 06:42:05;;;;;;;3.63;1.98;;;9.50;99.90;;;;;;5081952;28;20575;-68
2023/03/14 06:44:32;;;;;;;7.03;2.30;;;9.50;99.90;;;;;;5069028;27;20488;-69
2023/03/14 06:47:00;;;;;;;4.13;2.63;;;9.50;99.90;;;;;;5080425;27;20547;-69
2023/03/14 06:49:27;;;;;;;9.27;3.40;;;9.50;99.90;;;;;;5069938;27;20821;-68
2023/03/14 06:51:54;;;;;;;7.97;3.30;;;9.50;99.90;;;;;;5036393;28;20614;-69
2023/03/14 06:54:21;;;;;;;8.02;2.97;;;9.50;99.90;;;;;;5061110;28;20509;-68
2023/03/14 06:56:47;;;;;;;7.05;2.88;;;9.50;99.90;;;;;;5058722;28;20200;-69
2023/03/14 06:59:14;;;;;;;6.97;2.60;;;9.50;99.90;;;;;;5066092;28;20196;-68
2023/03/14 07:01:41;;;;;;;7.15;2.95;;;9.60;99.90;;;;;;5070494;28;20196;-68
2023/03/14 07:04:09;;;;;;;5.15;2.75;;;9.60;99.90;;;;;;5056973;28;20207;-68
2023/03/14 07:06:37;;;;;;;7.90;2.70;;;9.60;99.90;;;;;;5047810;28;20833;-69
2023/03/14 07:09:04;;;;;;;7.20;2.55;;;9.60;99.90;;;;;;5032820;28;20640;-68
2023/03/14 07:11:31;;;;;;;6.05;2.55;;;9.60;99.90;;;;;;5059837;28;20696;-68
2023/03/14 07:13:57;;;;;;;4.45;2.47;;;9.70;99.90;;;;;;5066179;28;20311;-68
2023/03/14 07:16:28;;;;;;;9.82;3.60;;;9.70;99.90;;;;;;5065960;28;20950;-69
2023/03/14 07:18:55;;;;;;;10.65;5.13;;;9.80;99.90;;;;;;5074267;28;20199;-68
2023/03/14 07:21:23;;;;;;;6.55;3.00;;;9.90;99.90;;;;;;5052704;28;20309;-69
2023/03/14 07:23:50;;;;;;;6.82;3.10;;;9.90;99.90;;;;;;5040495;28;20211;-69
2023/03/14 07:26:17;;;;;;;6.38;2.35;;;9.90;99.90;;;;;;5050278;28;20522;-69
2023/03/14 07:28:44;;;;;;;5.80;2.33;;;10.00;99.90;;;;;;5067065;28;20200;-68
2023/03/14 07:31:11;;;;;;;3.10;1.83;;;9.90;99.90;;;;;;5064254;28;20203;-69
2023/03/14 07:33:38;;;;;;;6.40;2.78;;;9.90;99.90;;;;;;5068599;28;20228;-69
2023/03/14 07:36:05;;;;;;;4.85;1.73;;;9.90;99.90;;;;;;5053908;28;20606;-68
2023/03/14 07:38:33;;;;;;;5.97;2.40;;;9.90;99.90;;;;;;5036533;28;20204;-69
2023/03/14 07:41:01;;;;;;;7.18;2.15;;;9.90;99.90;;;;;;5067291;28;20210;-68
2023/03/14 07:43:28;;;;;;;7.47;2.10;;;9.90;99.90;;;;;;5057823;28;20416;-68
2023/03/14 07:45:55;;;;;;;4.53;2.00;;;9.90;99.90;;;;;;5072174;28;20199;-68
2023/03/14 07:48:24;;;;;;;7.85;2.08;;;9.90;99.90;;;;;;5063571;28;20196;-68
2023/03/14 07:50:52;;;;;;;6.10;1.88;;;9.90;99.90;;;;;;5056342;28;20193;-69
2023/03/14 07:53:19;;;;;;;6.05;1.80;;;9.90;99.90;;;;;;5025342;28;20267;-69
2023/03/14 07:55:47;;;;;;;4.70;1.85;;;9.90;99.90;;;;;;5061640;28;20200;-69
2023/03/14 07:58:14;;;;;;;3.30;1.58;;;9.90;99.90;;;;;;5053951;28;20199;-68
2023/03/14 08:00:41;;;;;;;6.35;1.80;;;9.90;99.90;;;;;;5064949;28;20973;-69
2023/03/14 08:03:08;;;;;;;12.40;2.03;;;9.90;99.90;;;;;;5068469;28;20200;-68
2023/03/14 08:05:36;;;;;;;6.80;1.90;;;9.90;99.90;;;;;;5055404;28;20540;-69
2023/03/14 08:08:03;;;;;;;5.47;1.73;;;9.90;99.90;;;;;;5054322;28;20196;-69
2023/03/14 08:10:29;;;;;;;6.32;1.77;;;9.90;99.90;;;;;;5051259;28;20397;-69
2023/03/14 08:12:59;;;;;;;5.70;1.67;;;9.90;99.90;;;;;;5065840;28;20192;-69
2023/03/14 08:15:27;;;;;;;10.73;2.47;;;9.90;99.90;;;;;;5054566;28;20255;-68
2023/03/14 08:17:54;;;;;;;4.28;1.73;;;9.80;99.90;;;;;;5065820;28;20192;-69
2023/03/14 08:20:23;;;;;;;5.13;2.15;;;9.90;99.90;;;;;;5047859;28;20330;-69
2023/03/14 08:22:50;;;;;;;2.97;2.20;;;9.80;99.90;;;;;;5067814;28;20197;-69
2023/03/14 08:25:18;;;;;;;6.50;2.33;;;9.80;99.90;;;;;;5031805;28;20402;-68
2023/03/14 08:27:45;;;;;;;6.70;2.70;;;9.90;99.90;;;;;;5066064;28;20224;-69
2023/03/14 08:30:15;;;;;;;6.30;2.17;;;9.90;99.90;;;;;;5051781;28;20200;-69
2023/03/14 08:32:42;;;;;;;8.10;2.60;;;9.90;99.90;;;;;;5065840;28;20591;-69
2023/03/14 08:35:09;;;;;;;5.93;2.10;;;9.80;99.90;;;;;;5054103;28;20229;-69
2023/03/14 08:37:36;;;;;;;8.30;1.40;;;9.80;99.90;;;;;;5051361;28;20200;-69
2023/03/14 08:40:06;;;;;;;4.30;1.10;;;8.90;93.70;;;;;;5024446;28;20209;-68
2023/03/14 08:42:33;;;;;;;5.17;0.90;;;7.60;97.30;;;;;;5055577;28;20789;-68
2023/03/14 08:45:00;;;;;;;2.93;1.57;;;6.60;99.90;;;;;;5043537;28;20219;-69
2023/03/14 08:47:29;;;;;;;2.60;0.70;;;6.20;99.90;;;;;;5048849;28;20196;-68
2023/03/14 08:49:55;;;;;;;2.33;0.77;;;5.90;99.90;;;;;;5056452;28;20489;-69
2023/03/14 08:52:22;;;;;;;2.07;0.70;;;5.80;99.90;;;;;;5048139;28;20216;-69
2023/03/14 08:54:49;;;;;;;1.77;1.20;;;5.70;99.90;;;;;;5040520;28;21291;-69
2023/03/14 08:57:16;;;;;;;4.63;1.23;;;5.50;99.90;;;;;;5076465;28;20192;-69
2023/03/14 08:59:43;;;;;;;2.57;0.47;;;5.50;99.90;;;;;;5060731;27;20420;-69
2023/03/14 09:02:11;;;;;;;6.90;1.97;;;5.40;99.90;;;;;;5062697;28;20211;-69
2023/03/14 09:04:39;;;;;;;2.70;0.90;;;5.40;99.90;;;;;;5074575;28;20203;-68
2023/03/14 09:07:06;;;;;;;4.23;0.93;;;5.30;99.90;;;;;;5061043;28;20297;-68
2023/03/14 09:09:33;;;;;;;6.03;1.30;;;5.10;99.90;;;;;;5077027;28;20211;-69
2023/03/14 09:12:00;;;;;;;1.80;0.50;;;5.00;99.90;;;;;;5046745;27;20428;-68
2023/03/14 09:14:27;;;;;;;0.40;0.40;;;4.90;99.90;;;;;;5083493;27;20219;-68
2023/03/14 09:16:54;;;;;;;2.67;1.23;;;4.60;99.90;;;;;;5064028;28;20239;-68
2023/03/14 09:19:21;;;;;;;0.70;0.30;;;4.40;99.90;;;;;;5070646;28;20222;-68
2023/03/14 09:21:49;;;;;;;2.10;0.70;;;4.30;99.90;;;;;;5076304;27;20203;-68
2023/03/14 09:24:15;;;;;;;1.17;0.30;;;4.00;99.90;;;;;;5077356;28;20245;-68
2023/03/14 09:26:42;;;;;;;0.50;0.40;;;3.90;99.90;;;;;;5039882;28;20212;-68
2023/03/14 09:29:09;;;;;;;0.47;0.37;;;3.90;99.90;;;;;;5077791;28;20408;-68
2023/03/14 09:31:36;;;;;;;0.43;0.30;;;3.70;99.90;;;;;;5070598;28;20294;-68
2023/03/14 09:34:03;;;;;;;1.43;0.30;;;3.70;99.90;;;;;;5061163;28;20219;-68
2023/03/14 09:36:30;;;;;;;1.83;0.40;;;3.70;99.90;;;;;;5086616;28;20625;-68
2023/03/14 09:38:59;;;;;;;3.30;0.33;;;3.60;99.90;;;;;;5071514;28;20473;-68
2023/03/14 09:41:28;;;;;;;1.40;0.20;;;3.60;99.90;;;;;;5047955;27;20208;-68
2023/03/14 09:44:05;;;;;;;0.93;0.20;;;3.70;99.90;;;;;;5056471;28;20227;-68
2023/03/14 09:46:36;;;;;;;0.20;0.20;;;3.70;99.90;;;;;;5064916;27;20194;-69
2023/03/14 09:49:03;;;;;;;2.07;0.50;;;3.70;99.90;;;;;;5069686;28;20393;-68
2023/03/14 09:51:31;;;;;;;0.30;0.30;;;3.70;99.90;;;;;;5084411;28;20523;-68
2023/03/14 09:54:00;;;;;;;0.63;0.40;;;3.80;99.90;;;;;;5066803;27;20199;-68
2023/03/14 09:56:32;;;;;;;1.30;0.27;;;3.90;99.90;;;;;;5052527;28;20215;-68
2023/03/14 09:59:01;;;;;;;0.40;0.20;;;4.00;99.90;;;;;;5078497;28;20606;-69
2023/03/14 10:01:30;;;;;;;1.10;0.37;;;4.20;99.90;;;;;;5068756;28;20696;-68
2023/03/14 10:04:00;;;;;;;1.93;1.00;;;4.10;99.90;;;;;;5070534;28;20199;-68
2023/03/14 10:06:28;;;;;;;0.13;0.13;;;4.10;99.90;;;;;;5065590;28;20198;-68
2023/03/14 10:08:56;;;;;;;2.60;0.67;;;4.10;99.90;;;;;;5067740;28;20195;-68
2023/03/14 10:11:25;;;;;;;1.97;0.43;;;4.10;99.90;;;;;;5083157;28;20205;-68
2023/03/14 10:14:05;;;;;;;3.20;0.40;;;4.10;99.90;;;;;;5044974;28;20820;-68
2023/03/14 10:16:33;;;;;;;1.50;0.43;;;4.10;99.90;;;;;;5082550;28;20220;-69
2023/03/14 10:19:05;;;;;;;3.80;0.50;;;4.20;99.90;;;;;;5064726;28;20651;-68
2023/03/14 10:21:37;;;;;;;0.10;0.10;;;4.40;99.90;;;;;;5082704;28;20203;-68
2023/03/14 10:24:18;;;;;;;6.20;1.03;;;4.30;99.90;;;;;;5066625;28;20537;-68
2023/03/14 10:26:49;;;;;;;2.40;0.60;;;4.40;99.90;;;;;;5080687;28;20210;-68
2023/03/14 10:29:16;;;;;;;1.67;0.50;;;4.30;99.90;;;;;;5055468;28;20927;-68
2023/03/14 10:31:52;;;;;;;3.73;0.80;;;4.40;99.90;;;;;;5075283;28;20203;-68
2023/03/14 10:34:24;;;;;;;3.37;0.53;;;4.40;99.90;;;;;;5067824;28;20207;-68
2023/03/14 10:36:54;;;;;;;2.23;0.60;;;4.40;99.90;;;;;;5082091;28;20203;-68
2023/03/14 10:39:33;;;;;;;3.03;0.60;;;4.40;99.90;;;;;;5069565;28;20196;-68
2023/03/14 10:42:12;;;;;;;4.33;0.70;;;4.50;99.90;;;;;;5074099;28;20447;-68
2023/03/14 10:44:40;;;;;;;0.50;0.40;;;4.60;99.90;;;;;;5047742;28;20227;-68
2023/03/14 10:47:07;;;;;;;1.43;0.80;;;4.60;99.90;;;;;;5079678;28;20394;-68
2023/03/14 10:49:36;;;;;;;7.17;0.83;;;4.60;99.90;;;;;;5063023;28;20223;-68
2023/03/14 10:52:14;;;;;;;1.90;0.73;;;4.60;99.90;;;;;;5077782;28;20251;-69
2023/03/14 10:54:41;;;;;;;5.13;0.80;;;4.70;99.90;;;;;;5075674;28;20278;-68
2023/03/14 10:57:09;;;;;;;3.77;1.10;;;4.70;99.90;;;;;;5057257;28;20680;-68
2023/03/14 10:59:38;;;;;;;5.00;1.40;;;4.80;99.60;;;;;;5039651;28;20224;-68
2023/03/14 11:02:22;;;;;;;5.90;0.50;;;4.80;98.60;;;;;;5074930;28;20313;-68
2023/03/14 11:05:04;;;;;;;4.70;0.93;;;4.90;98.20;;;;;;5073023;28;20212;-68
2023/03/14 11:07:36;;;;;;;0.60;0.60;;;4.90;94.70;;;;;;5082531;28;20218;-68
2023/03/14 11:10:11;;;;;;;2.40;1.13;;;5.00;95.90;;;;;;5065253;28;20698;-68
2023/03/14 11:12:49;;;;;;;5.87;1.03;;;5.00;96.40;;;;;;5085235;28;20542;-68
2023/03/14 11:15:21;;;;;;;9.70;1.10;;;5.10;97.90;;;;;;5051187;28;20323;-69
2023/03/14 11:18:00;;;;;;;6.93;1.37;;;5.20;98.50;;;;;;5073117;28;20195;-68
2023/03/14 11:20:36;;;;;;;8.07;1.30;;;5.30;95.60;;;;;;5072685;28;20195;-68
2023/03/14 11:23:13;;;;;;;7.30;1.23;;;5.40;98.10;;;;;;5077473;28;20842;-69
2023/03/14 11:25:46;;;;;;;5.73;1.27;;;5.30;95.20;;;;;;5078397;28;20204;-68
2023/03/14 11:28:19;;;;;;;4.97;1.37;;;5.30;96.30;;;;;;5068521;28;20493;-68
2023/03/14 11:30:52;;;;;;;8.83;1.60;;;5.20;96.30;;;;;;5047182;28;20200;-68
2023/03/14 11:33:23;;;;;;;3.97;1.33;;;4.90;99.90;;;;;;5083944;28;20198;-68
2023/03/14 11:35:56;;;;;;;9.33;1.43;;;5.00;99.90;;;;;;5077110;27;20227;-68
2023/03/14 11:38:30;;;;;;;4.53;1.20;;;5.10;99.90;;;;;;5088250;27;20199;-68
2023/03/14 11:40:59;;;;;;;9.37;1.20;;;5.20;99.90;;;;;;5069602;28;20192;-68
2023/03/14 11:43:30;;;;;;;7.80;1.57;;;5.40;97.50;;;;;;5084119;27;20200;-68
2023/03/14 11:46:04;;;;;;;8.60;1.87;;;5.50;97.90;;;;;;5050299;27;20960;-68
2023/03/14 11:48:39;;;;;;;10.33;1.73;;;5.50;94.80;;;;;;5085932;27;20193;-68
2023/03/14 11:51:12;;;;;;;17.90;2.37;;;5.60;90.00;;;;;;5070552;27;20567;-68
2023/03/14 11:53:48;;;;;;;10.23;1.93;;;5.60;90.80;;;;;;5090868;27;20539;-68
2023/03/14 11:56:25;;;;;;;12.00;1.80;;;5.60;41.90;;;;;;5071616;27;20748;-68
2023/03/14 11:58:59;;;;;;;12.83;2.20;;;5.70;43.70;;;;;;5081281;27;20203;-68
2023/03/14 12:01:35;;;;;;;17.53;3.30;;;5.70;18.70;;;;;;5080934;27;20394;-68
2023/03/14 12:04:10;;;;;;;11.37;2.20;;;5.70;12.40;;;;;;5049831;27;20199;-68
2023/03/14 12:06:46;;;;;;;9.13;2.17;;;5.60;1.00;;;;;;5040217;27;20200;-68
2023/03/14 12:09:14;;;;;;;10.03;2.37;;;5.70;1.00;;;;;;5070772;27;20214;-67
2023/03/14 12:11:45;;;;;;;10.43;1.83;;;5.70;1.00;;;;;;5060210;27;20319;-68
2023/03/14 12:14:23;;;;;;;10.00;2.27;;;5.70;1.00;;;;;;5068095;27;20673;-67
2023/03/14 12:16:56;;;;;;;7.47;1.50;;;5.70;1.00;;;;;;5076053;28;20242;-67
2023/03/14 12:19:30;;;;;;;4.77;1.53;;;5.70;1.00;;;;;;5045779;27;20678;-67
2023/03/14 12:22:02;;;;;;;13.80;1.67;;;5.80;1.00;;;;;;5080081;27;20723;-67
2023/03/14 12:24:32;;;;;;;5.20;1.40;;;5.90;1.00;;;;;;5061749;28;20272;-67
2023/03/14 12:27:02;;;;;;;6.20;1.60;;;5.90;1.00;;;;;;5051495;27;20574;-67
2023/03/14 12:29:31;;;;;;;10.40;1.83;;;5.90;1.00;;;;;;5070295;27;20704;-67
2023/03/14 12:32:10;;;;;;;5.67;1.20;;;5.90;99.90;;;;;;5069142;28;20685;-67
2023/03/14 12:34:41;;;;;;;9.77;2.13;;;5.90;99.90;;;;;;5049006;27;20220;-67
2023/03/14 12:37:28;;;;;;;6.70;1.57;;;5.90;99.90;;;;;;5079993;27;20300;-67
2023/03/14 12:40:08;;;;;;;10.20;1.23;;;6.00;99.90;;;;;;5073633;27;20207;-67
2023/03/14 12:42:43;;;;;;;3.77;1.03;;;6.10;99.90;;;;;;5069850;27;20501;-67
2023/03/14 12:45:26;;;;;;;10.83;1.50;;;6.00;99.90;;;;;;5072189;27;20207;-67
2023/03/14 12:48:20;;;;;;;14.60;2.07;;;5.90;99.90;;;;;;5067803;27;20249;-67
2023/03/14 12:50:54;;;;;;;8.63;1.40;;;5.90;99.90;;;;;;5057033;28;20293;-67
2023/03/14 12:54:00;;;;;;;5.30;1.77;;;5.90;99.90;;;;;;5060400;28;20456;-66
2023/03/14 12:56:46;;;;;;;5.93;1.40;;;5.90;99.90;;;;;;5074261;27;20227;-66
2023/03/14 12:59:31;;;;;;;12.03;1.93;;;5.90;99.90;;;;;;5068348;27;20848;-66
2023/03/14 13:02:02;;;;;;;7.03;1.20;;;5.90;99.90;;;;;;5079495;27;20674;-67
2023/03/14 13:04:34;;;;;;;8.43;1.87;;;5.90;99.90;;;;;;5035529;28;21308;-66